createdAt,value
2018-08-20T00:01:13.312Z,46.10
2018-08-20T00:03:50.274Z,48.40
2018-08-20T00:06:22.314Z,48.10
2018-08-20T00:08:54.750Z,47.43
2018-08-20T00:11:27.122Z,49.90
2018-08-20T00:13:59.342Z,47.47
2018-08-20T00:16:32.646Z,48.30
2018-08-20T00:19:05.025Z,47.83
2018-08-20T00:21:37.344Z,48.20
2018-08-20T00:24:09.604Z,49.20
2018-08-20T00:26:42.047Z,48.63
2018-08-20T00:29:14.559Z,50.47
2018-08-20T00:31:46.763Z,50.27
2018-08-20T00:34:19.261Z,52.00
2018-08-20T00:36:52.305Z,51.23
2018-08-20T00:39:24.801Z,49.63
2018-08-20T00:41:56.916Z,49.90
2018-08-20T00:44:30.534Z,48.20
2018-08-20T00:47:03.106Z,49.63
2018-08-20T00:49:35.704Z,44.50
2018-08-20T00:52:08.179Z,45.60
2018-08-20T00:54:41.052Z,43.60
2018-08-20T00:57:13.774Z,41.40
2018-08-20T00:59:46.190Z,43.40
2018-08-20T01:02:23.289Z,45.60
2018-08-20T01:04:56.088Z,40.43
2018-08-20T01:07:29.065Z,40.80
2018-08-20T01:10:01.215Z,40.53
2018-08-20T01:12:33.567Z,39.00
2018-08-20T01:15:06.419Z,39.43
2018-08-20T01:17:38.734Z,41.43
2018-08-20T01:20:11.119Z,39.53
2018-08-20T01:22:43.561Z,39.73
2018-08-20T01:27:52.763Z,38.47
2018-08-20T01:30:25.320Z,37.60
2018-08-20T01:33:16.928Z,41.20
2018-08-20T01:35:49.846Z,40.83
2018-08-20T01:38:22.441Z,41.70
2018-08-20T01:40:54.778Z,41.60
2018-08-20T01:43:26.969Z,40.43
2018-08-20T01:45:59.548Z,39.67
2018-08-20T01:48:31.873Z,44.50
2018-08-20T01:51:04.561Z,43.70
2018-08-20T01:53:37.200Z,41.40
2018-08-20T01:56:09.705Z,42.50
2018-08-20T01:58:42.090Z,42.67
2018-08-20T02:01:14.243Z,45.13
2018-08-20T02:03:46.540Z,41.20
2018-08-20T02:06:19.012Z,40.03
2018-08-20T02:08:51.661Z,42.20
2018-08-20T02:11:25.089Z,41.87
2018-08-20T02:13:57.753Z,42.10
2018-08-20T02:16:29.876Z,40.00
2018-08-20T02:19:02.278Z,40.90
2018-08-20T02:21:38.215Z,40.20
2018-08-20T02:24:10.533Z,40.83
2018-08-20T02:26:43.402Z,42.10
2018-08-20T02:29:16.019Z,40.97
2018-08-20T02:31:48.673Z,40.30
2018-08-20T02:34:21.429Z,40.90
2018-08-20T02:36:54.048Z,42.10
2018-08-20T02:39:26.420Z,38.63
2018-08-20T02:41:58.964Z,39.40
2018-08-20T02:44:31.324Z,40.33
2018-08-20T02:47:03.980Z,41.27
2018-08-20T02:49:36.456Z,38.50
2018-08-20T02:52:09.384Z,40.80
2018-08-20T02:54:41.697Z,38.77
2018-08-20T02:57:13.861Z,39.70
2018-08-20T02:59:46.225Z,37.90
2018-08-20T03:02:18.397Z,37.57
2018-08-20T03:04:50.924Z,36.83
2018-08-20T03:07:23.351Z,37.90
2018-08-20T03:09:55.840Z,38.37
2018-08-20T03:12:28.518Z,37.40
2018-08-20T03:15:00.906Z,37.27
2018-08-20T03:17:33.046Z,36.60
2018-08-20T03:20:05.769Z,41.20
2018-08-20T03:22:38.360Z,37.83
2018-08-20T03:25:10.832Z,38.23
2018-08-20T03:27:43.558Z,38.80
2018-08-20T03:30:16.006Z,37.43
2018-08-20T03:32:48.597Z,37.47
2018-08-20T03:35:21.185Z,39.80
2018-08-20T03:37:53.715Z,38.47
2018-08-20T03:40:25.709Z,38.90
2018-08-20T03:42:58.212Z,38.57
2018-08-20T03:45:30.720Z,38.53
2018-08-20T03:48:03.256Z,38.50
2018-08-20T03:50:35.806Z,37.90
2018-08-20T03:53:09.076Z,40.47
2018-08-20T03:55:41.554Z,36.30
2018-08-20T03:58:13.798Z,38.60
2018-08-20T04:00:46.759Z,39.50
2018-08-20T04:03:18.842Z,40.50
2018-08-20T04:05:51.211Z,39.73
2018-08-20T04:08:23.978Z,40.60
2018-08-20T04:10:56.697Z,39.13
2018-08-20T04:13:29.189Z,38.33
2018-08-20T04:16:03.511Z,39.63
2018-08-20T04:18:35.828Z,40.97
2018-08-20T04:21:08.316Z,40.30
2018-08-20T04:23:41.136Z,41.30
2018-08-20T04:26:13.835Z,40.53
2018-08-20T04:28:46.953Z,39.73
2018-08-20T04:31:20.018Z,37.87
2018-08-20T04:33:52.533Z,39.23
2018-08-20T04:36:25.052Z,40.10
2018-08-20T04:38:58.094Z,40.67
2018-08-20T04:41:30.592Z,39.03
2018-08-20T04:50:52.699Z,39.67
2018-08-20T04:53:24.982Z,38.00
2018-08-20T04:55:57.578Z,36.87
2018-08-20T04:58:30.050Z,36.80
2018-08-20T05:01:02.681Z,40.83
2018-08-20T05:03:35.149Z,39.67
2018-08-20T05:06:07.908Z,39.40
2018-08-20T05:08:40.415Z,39.03
2018-08-20T05:11:12.879Z,37.63
2018-08-20T05:13:45.445Z,39.53
2018-08-20T05:16:17.983Z,35.90
2018-08-20T05:18:50.632Z,39.33
2018-08-20T05:21:23.019Z,36.33
2018-08-20T05:23:55.138Z,37.87
2018-08-20T05:26:27.464Z,38.17
2018-08-20T05:29:00.153Z,36.73
2018-08-20T05:31:32.829Z,38.83
2018-08-20T05:34:06.649Z,39.30
2018-08-20T05:36:39.183Z,36.23
2018-08-20T05:39:12.753Z,36.40
2018-08-20T05:41:45.509Z,37.37
2018-08-20T05:44:17.996Z,36.67
2018-08-20T05:46:50.376Z,36.70
2018-08-20T05:49:23.000Z,37.43
2018-08-20T05:51:55.241Z,36.63
2018-08-20T05:54:27.878Z,36.93
2018-08-20T05:57:00.541Z,36.10
2018-08-20T05:59:32.928Z,35.90
2018-08-20T06:02:05.917Z,36.20
2018-08-20T06:04:38.502Z,35.53
2018-08-20T06:07:11.141Z,36.90
2018-08-20T06:09:43.064Z,36.77
2018-08-20T06:12:15.117Z,37.77
2018-08-20T06:14:47.437Z,37.47
2018-08-20T06:17:20.067Z,34.03
2018-08-20T06:19:52.379Z,36.47
2018-08-20T06:22:24.644Z,32.20
2018-08-20T06:24:57.212Z,34.20
2018-08-20T06:27:29.411Z,35.27
2018-08-20T06:30:01.696Z,33.70
2018-08-20T06:32:34.342Z,33.30
2018-08-20T06:35:07.409Z,32.10
2018-08-20T06:37:40.257Z,30.80
2018-08-20T06:40:15.780Z,30.90
2018-08-20T06:42:48.182Z,32.60
2018-08-20T06:45:20.521Z,34.80
2018-08-20T06:47:52.921Z,31.30
2018-08-20T06:50:25.716Z,31.73
2018-08-20T06:52:58.333Z,32.17
2018-08-20T06:55:30.943Z,30.50
2018-08-20T06:58:04.378Z,31.27
2018-08-20T07:00:37.281Z,30.90
2018-08-20T07:03:10.003Z,30.50
2018-08-20T07:05:42.233Z,30.63
2018-08-20T07:08:14.508Z,28.80
2018-08-20T07:10:48.952Z,30.90
2018-08-20T07:13:29.246Z,31.00
2018-08-20T07:16:01.967Z,33.57
2018-08-20T07:18:34.407Z,31.53
2018-08-20T07:21:07.022Z,31.17
2018-08-20T07:23:39.423Z,31.87
2018-08-20T07:26:11.969Z,29.63
2018-08-20T07:28:44.293Z,31.50
2018-08-20T07:31:16.629Z,31.53
2018-08-20T07:33:48.995Z,28.87
2018-08-20T07:36:21.493Z,28.13
2018-08-20T07:38:53.969Z,28.53
2018-08-20T07:41:26.182Z,30.23
2018-08-20T07:43:58.529Z,28.83
2018-08-20T07:46:30.896Z,29.47
2018-08-20T07:49:08.179Z,28.83
2018-08-20T07:51:40.802Z,27.63
2018-08-20T07:54:13.543Z,29.00
2018-08-20T07:56:45.987Z,29.03
2018-08-20T07:59:18.687Z,26.60
2018-08-20T08:01:51.789Z,28.60
2018-08-20T08:04:24.507Z,27.73
2018-08-20T08:06:57.357Z,28.80
2018-08-20T08:09:29.938Z,27.93
2018-08-20T08:12:02.886Z,27.17
2018-08-20T08:14:35.684Z,27.33
2018-08-20T08:17:08.645Z,26.97
2018-08-20T08:19:41.395Z,26.10
2018-08-20T08:22:13.814Z,27.93
2018-08-20T08:24:47.464Z,29.03
2018-08-20T08:27:19.649Z,27.37
2018-08-20T08:29:52.235Z,28.70
2018-08-20T08:32:24.924Z,26.17
2018-08-20T08:34:57.386Z,27.37
2018-08-20T08:37:29.838Z,26.47
2018-08-20T08:40:02.723Z,28.33
2018-08-20T08:42:35.348Z,26.90
2018-08-20T08:45:08.534Z,26.50
2018-08-20T08:47:40.850Z,27.47
2018-08-20T08:50:13.773Z,27.60
2018-08-20T08:52:46.918Z,27.77
2018-08-20T08:55:19.409Z,26.47
2018-08-20T08:57:51.620Z,25.73
2018-08-20T09:00:24.231Z,28.17
2018-08-20T09:02:56.513Z,25.73
2018-08-20T09:05:29.046Z,25.77
2018-08-20T09:08:01.694Z,27.10
2018-08-20T09:10:34.269Z,27.37
2018-08-20T09:13:07.504Z,29.10
2018-08-20T09:15:40.128Z,26.20
2018-08-20T09:18:12.595Z,27.73
2018-08-20T09:20:45.783Z,27.00
2018-08-20T09:23:18.478Z,26.87
2018-08-20T09:25:52.168Z,26.00
2018-08-20T09:28:24.643Z,27.70
2018-08-20T09:30:57.070Z,27.87
2018-08-20T09:33:29.693Z,27.50
2018-08-20T09:36:02.224Z,28.60
2018-08-20T09:38:34.889Z,27.30
2018-08-20T09:41:07.043Z,27.37
2018-08-20T09:43:39.759Z,27.10
2018-08-20T09:46:11.958Z,28.13
2018-08-20T09:48:44.299Z,27.17
2018-08-20T09:51:16.954Z,28.20
2018-08-20T09:53:50.058Z,26.33
2018-08-20T09:56:22.572Z,28.53
2018-08-20T09:58:55.070Z,29.60
2018-08-20T10:01:27.237Z,27.43
2018-08-20T10:03:59.880Z,28.90
2018-08-20T10:06:32.258Z,31.60
2018-08-20T10:09:05.760Z,32.20
2018-08-20T10:11:38.673Z,30.10
2018-08-20T10:14:10.957Z,31.37
2018-08-20T10:16:43.575Z,33.30
2018-08-20T10:19:16.331Z,33.20
2018-08-20T10:21:48.786Z,32.17
2018-08-20T10:24:21.119Z,33.90
2018-08-20T10:26:53.624Z,30.77
2018-08-20T10:29:26.033Z,34.07
2018-08-20T10:31:58.626Z,32.60
2018-08-20T10:34:31.444Z,33.07
2018-08-20T10:37:03.964Z,35.77
2018-08-20T10:39:36.364Z,33.43
2018-08-20T10:42:08.903Z,31.80
2018-08-20T10:44:46.134Z,32.63
2018-08-20T10:47:19.236Z,34.83
2018-08-20T10:49:51.845Z,32.60
2018-08-20T10:52:24.747Z,32.10
2018-08-20T10:54:57.242Z,35.60
2018-08-20T10:57:29.940Z,32.43
2018-08-20T11:00:02.296Z,33.27
2018-08-20T11:02:34.900Z,34.33
2018-08-20T11:05:07.702Z,33.67
2018-08-20T11:07:40.318Z,37.60
2018-08-20T11:10:12.756Z,34.73
2018-08-20T11:12:45.180Z,34.20
2018-08-20T11:15:17.594Z,36.70
2018-08-20T11:17:50.178Z,33.43
2018-08-20T11:20:22.380Z,36.60
2018-08-20T11:22:54.753Z,36.00
2018-08-20T11:25:27.146Z,37.10
2018-08-20T11:27:59.586Z,37.20
2018-08-20T11:30:32.169Z,38.00
2018-08-20T11:33:04.626Z,36.90
2018-08-20T11:35:37.043Z,36.40
2018-08-20T11:38:09.190Z,38.83
2018-08-20T11:40:41.429Z,38.50
2018-08-20T11:43:13.833Z,38.73
2018-08-20T11:45:46.953Z,39.43
2018-08-20T11:48:19.447Z,39.40
2018-08-20T11:50:51.708Z,39.60
2018-08-20T11:53:24.270Z,40.40
2018-08-20T11:55:56.648Z,39.00
2018-08-20T11:58:28.694Z,38.83
2018-08-20T12:01:01.308Z,39.10
2018-08-20T12:03:33.723Z,39.57
2018-08-20T12:06:07.249Z,40.27
2018-08-20T12:08:39.887Z,38.20
2018-08-20T12:11:12.266Z,37.80
2018-08-20T12:13:46.091Z,40.10
2018-08-20T12:16:18.536Z,37.57
2018-08-20T12:18:51.190Z,37.10
2018-08-20T12:21:23.435Z,39.53
2018-08-20T12:23:55.895Z,36.13
2018-08-20T12:26:28.361Z,35.60
2018-08-20T12:29:00.933Z,38.10
2018-08-20T12:31:33.445Z,37.50
2018-08-20T12:34:05.643Z,38.10
2018-08-20T12:36:38.914Z,40.63
2018-08-20T12:39:11.418Z,43.70
2018-08-20T12:41:43.844Z,44.23
2018-08-20T12:44:16.407Z,43.37
2018-08-20T12:46:48.932Z,43.30
2018-08-20T12:49:21.298Z,37.93
2018-08-20T12:51:53.988Z,37.20
2018-08-20T12:54:26.953Z,40.40
2018-08-20T12:56:59.689Z,42.80
2018-08-20T12:59:32.302Z,38.17
2018-08-20T13:02:04.841Z,42.47
2018-08-20T13:04:37.283Z,41.73
2018-08-20T13:07:09.648Z,38.63
2018-08-20T13:09:41.966Z,41.67
2018-08-20T13:12:15.192Z,43.23
2018-08-20T13:14:48.156Z,45.43
2018-08-20T13:17:20.805Z,42.90
2018-08-20T13:19:53.428Z,39.27
2018-08-20T13:22:26.809Z,43.77
2018-08-20T13:24:59.745Z,42.73
2018-08-20T13:27:32.063Z,43.33
2018-08-20T13:30:04.543Z,42.40
2018-08-20T13:32:36.928Z,44.27
2018-08-20T13:35:09.521Z,41.83
2018-08-20T13:37:42.542Z,42.73
2018-08-20T13:40:14.874Z,41.63
2018-08-20T13:42:47.192Z,45.60
2018-08-20T13:45:19.640Z,45.40
2018-08-20T13:47:52.415Z,45.10
2018-08-20T13:50:24.899Z,44.57
2018-08-20T13:55:37.127Z,44.23
2018-08-20T13:58:09.659Z,43.03
2018-08-20T14:00:42.015Z,41.50
2018-08-20T14:03:14.871Z,46.87
2018-08-20T14:05:47.397Z,42.43
2018-08-20T14:08:19.726Z,42.80
2018-08-20T14:10:52.044Z,43.63
2018-08-20T14:13:24.419Z,42.87
2018-08-20T14:15:56.935Z,42.63
2018-08-20T14:18:29.613Z,44.90
2018-08-20T14:21:12.721Z,48.10
2018-08-20T14:23:48.692Z,47.53
2018-08-20T14:26:21.029Z,45.80
2018-08-20T14:28:53.316Z,45.27
2018-08-20T14:31:26.588Z,45.40
2018-08-20T14:33:59.231Z,42.67
2018-08-20T14:36:31.937Z,45.77
2018-08-20T14:39:05.967Z,44.17
2018-08-20T14:41:38.445Z,48.60
2018-08-20T14:44:11.013Z,46.40
2018-08-20T14:46:43.312Z,46.03
2018-08-20T14:49:15.716Z,43.43
2018-08-20T14:51:48.342Z,41.67
2018-08-20T14:54:21.023Z,44.00
2018-08-20T14:56:53.130Z,46.60
2018-08-20T14:59:25.748Z,46.50
2018-08-20T15:01:58.909Z,47.27
2018-08-20T15:04:31.443Z,47.40
2018-08-20T15:07:11.052Z,49.70
2018-08-20T15:09:43.613Z,46.70
2018-08-20T15:12:16.102Z,50.20
2018-08-20T15:14:48.449Z,50.73
2018-08-20T15:17:20.838Z,46.73
2018-08-20T15:19:53.163Z,47.37
2018-08-20T15:22:25.701Z,46.30
2018-08-20T15:24:58.641Z,50.30
2018-08-20T15:27:31.087Z,48.37
2018-08-20T15:30:03.473Z,50.57
2018-08-20T15:32:35.976Z,50.00
2018-08-20T15:35:08.198Z,47.30
2018-08-20T15:37:40.848Z,49.27
2018-08-20T15:40:13.645Z,49.33
2018-08-20T15:42:46.139Z,44.70
2018-08-20T15:45:18.681Z,46.97
2018-08-20T15:47:51.170Z,44.97
2018-08-20T15:50:24.204Z,47.07
2018-08-20T15:52:57.261Z,46.97
2018-08-20T15:55:29.593Z,47.80
2018-08-20T15:58:02.203Z,45.70
2018-08-20T16:00:34.760Z,46.97
2018-08-20T16:03:07.460Z,44.27
2018-08-20T16:05:40.047Z,48.70
2018-08-20T16:08:12.705Z,48.10
2018-08-20T16:10:44.971Z,45.87
2018-08-20T16:13:19.091Z,51.47
2018-08-20T16:15:51.443Z,46.30
2018-08-20T16:18:24.260Z,46.00
2018-08-20T16:20:56.632Z,49.57
2018-08-20T16:23:29.354Z,44.30
2018-08-20T16:26:01.616Z,45.07
2018-08-20T16:28:34.151Z,47.80
2018-08-20T16:31:06.968Z,47.20
2018-08-20T16:33:39.539Z,48.57
2018-08-20T16:36:11.881Z,45.77
2018-08-20T16:38:44.320Z,51.67
2018-08-20T16:41:17.079Z,49.17
2018-08-20T16:43:49.314Z,49.30
2018-08-20T16:46:21.750Z,43.20
2018-08-20T16:48:54.091Z,46.27
2018-08-20T16:51:26.535Z,50.10
2018-08-20T16:53:58.699Z,44.80
2018-08-20T16:56:30.816Z,45.90
2018-08-20T16:59:03.066Z,41.20
2018-08-20T17:01:35.652Z,40.13
2018-08-20T17:04:13.219Z,42.63
2018-08-20T17:06:51.378Z,41.30
2018-08-20T17:09:23.790Z,39.77
2018-08-20T17:11:56.185Z,41.97
2018-08-20T17:14:28.446Z,41.10
2018-08-20T17:17:00.998Z,45.27
2018-08-20T17:19:33.438Z,45.90
2018-08-20T17:22:06.189Z,44.10
2018-08-20T17:24:39.384Z,40.50
2018-08-20T17:27:12.472Z,43.63
2018-08-20T17:29:45.149Z,43.50
2018-08-20T17:32:17.605Z,41.37
2018-08-20T17:34:50.287Z,45.07
2018-08-20T17:37:22.631Z,46.83
2018-08-20T17:40:06.274Z,45.10
2018-08-20T17:42:39.622Z,46.40
2018-08-20T17:45:12.795Z,43.50
2018-08-20T17:47:45.565Z,44.23
2018-08-20T17:50:30.618Z,44.00
2018-08-20T17:53:03.602Z,44.13
2018-08-20T17:55:35.768Z,39.50
2018-08-20T17:58:09.197Z,42.80
2018-08-20T18:00:45.982Z,41.43
2018-08-20T18:03:28.223Z,43.77
2018-08-20T18:06:05.380Z,40.57
2018-08-20T18:08:38.340Z,44.20
2018-08-20T18:11:10.824Z,43.00
2018-08-20T18:13:53.380Z,44.93
2018-08-20T18:16:25.638Z,43.20
2018-08-20T18:18:58.111Z,44.50
2018-08-20T18:21:30.965Z,41.20
2018-08-20T18:24:03.712Z,43.07
2018-08-20T18:26:41.943Z,40.67
2018-08-20T18:29:15.023Z,43.70
2018-08-20T18:31:47.935Z,45.70
2018-08-20T18:34:20.437Z,45.90
2018-08-20T18:36:53.613Z,45.67
2018-08-20T18:39:25.988Z,41.50
2018-08-20T18:42:01.112Z,46.33
2018-08-20T18:44:34.388Z,43.43
2018-08-20T18:47:06.899Z,43.23
2018-08-20T18:49:48.131Z,44.97
2018-08-20T18:52:20.585Z,43.70
2018-08-20T18:54:55.194Z,43.23
2018-08-20T18:57:30.555Z,41.60
2018-08-20T19:00:05.056Z,42.73
2018-08-20T19:02:40.293Z,39.40
2018-08-20T19:05:15.316Z,40.17
2018-08-20T19:07:48.199Z,42.00
2018-08-20T19:10:25.255Z,35.77
2018-08-20T19:12:57.749Z,40.90
2018-08-20T19:15:48.655Z,38.40
2018-08-20T19:18:29.305Z,44.87
2018-08-20T19:21:01.840Z,43.83
2018-08-20T19:30:24.892Z,42.80
2018-08-20T19:32:57.279Z,40.53
2018-08-20T19:35:29.585Z,42.60
2018-08-20T19:38:02.393Z,43.23
2018-08-20T19:40:34.721Z,40.90
2018-08-20T19:43:07.438Z,44.33
2018-08-20T19:45:44.729Z,38.80
2018-08-20T19:48:17.711Z,41.70
2018-08-20T19:50:50.193Z,43.60
2018-08-20T19:53:24.721Z,45.27
2018-08-20T19:55:57.882Z,44.37
2018-08-20T19:58:34.679Z,45.73
2018-08-20T20:01:17.675Z,41.50
2018-08-20T20:03:51.266Z,45.53
2018-08-20T20:06:23.701Z,45.30
2018-08-20T20:08:56.200Z,41.60
2018-08-20T20:11:30.346Z,44.40
2018-08-20T20:14:04.399Z,43.90
2018-08-20T20:16:42.775Z,44.40
2018-08-20T20:19:15.116Z,43.60
2018-08-20T20:21:47.317Z,43.10
2018-08-20T20:24:20.033Z,44.27
2018-08-20T20:26:52.397Z,43.60
2018-08-20T20:29:24.561Z,42.90
2018-08-20T20:31:57.230Z,44.80
2018-08-20T20:34:29.943Z,48.40
2018-08-20T20:37:02.446Z,47.10
2018-08-20T20:39:35.964Z,45.13
2018-08-20T20:42:08.494Z,46.73
2018-08-20T20:44:41.169Z,48.57
2018-08-20T20:47:13.413Z,48.67
2018-08-20T20:49:45.833Z,44.87
2018-08-20T20:52:18.293Z,47.57
2018-08-20T20:54:50.809Z,47.83
2018-08-20T20:57:23.233Z,47.97
2018-08-20T20:59:55.545Z,49.87
2018-08-20T21:02:27.996Z,48.63
2018-08-20T21:05:04.889Z,49.87
2018-08-20T21:07:37.569Z,49.67
2018-08-20T21:10:10.225Z,45.70
2018-08-20T21:12:42.606Z,48.50
2018-08-20T21:15:15.242Z,47.97
2018-08-20T21:17:47.599Z,48.70
2018-08-20T21:20:19.788Z,49.70
2018-08-20T21:22:52.426Z,49.47
2018-08-20T21:25:24.698Z,49.70
2018-08-20T21:27:57.210Z,50.50
2018-08-20T21:30:34.560Z,45.73
2018-08-20T21:33:06.747Z,53.30
2018-08-20T21:35:39.117Z,52.50
2018-08-20T21:38:11.969Z,54.23
2018-08-20T21:40:45.352Z,52.97
2018-08-20T21:43:17.541Z,55.70
2018-08-20T21:45:50.032Z,52.17
2018-08-20T21:48:22.496Z,50.40
2018-08-20T21:50:55.167Z,54.60
2018-08-20T21:53:34.193Z,56.43
2018-08-20T21:56:09.734Z,53.87
2018-08-20T21:58:43.384Z,55.57
2018-08-20T22:01:17.441Z,58.37
2018-08-20T22:03:50.013Z,56.20
2018-08-20T22:06:22.533Z,58.10
2018-08-20T22:08:54.719Z,58.10
2018-08-20T22:11:27.029Z,57.57
2018-08-20T22:13:59.251Z,60.77
2018-08-20T22:16:32.121Z,61.90
2018-08-20T22:19:05.209Z,61.30
2018-08-20T22:21:37.640Z,65.90
2018-08-20T22:24:10.021Z,62.80
2018-08-20T22:26:51.524Z,71.33
2018-08-20T22:29:24.349Z,66.67
2018-08-20T22:31:57.545Z,71.43
2018-08-20T22:34:30.954Z,71.43
2018-08-20T22:37:09.909Z,74.20
2018-08-20T22:39:42.864Z,79.40
2018-08-20T22:42:15.456Z,81.67
2018-08-20T22:44:48.095Z,90.23
2018-08-20T22:47:20.305Z,83.10
2018-08-20T22:49:52.749Z,88.30
2018-08-20T22:52:27.472Z,91.80
2018-08-20T22:55:00.249Z,101.77
2018-08-20T22:57:33.011Z,98.17
2018-08-20T23:00:13.556Z,96.70
2018-08-20T23:02:45.766Z,95.70
2018-08-20T23:05:18.038Z,92.00
2018-08-20T23:07:50.836Z,90.83
2018-08-20T23:10:23.601Z,91.60
2018-08-20T23:12:56.250Z,82.70
2018-08-20T23:15:28.635Z,82.00
2018-08-20T23:18:01.230Z,81.93
2018-08-20T23:20:34.001Z,78.90
2018-08-20T23:23:06.548Z,75.63
2018-08-20T23:25:38.995Z,70.03
2018-08-20T23:28:11.637Z,71.00
2018-08-20T23:30:49.493Z,74.47
2018-08-20T23:33:22.249Z,71.40
2018-08-20T23:35:55.104Z,67.87
2018-08-20T23:38:27.900Z,67.20
2018-08-20T23:41:01.036Z,77.37
2018-08-20T23:43:33.556Z,71.83
2018-08-20T23:46:06.504Z,78.97
2018-08-20T23:48:39.234Z,81.83
2018-08-20T23:51:11.465Z,74.63
2018-08-20T23:53:43.980Z,82.30
2018-08-20T23:56:16.051Z,83.77
2018-08-20T23:58:48.761Z,85.47
